Aviation Digital Data Service (ADDS)

Output produced by METARs form (1751 UTC 25 February 2018)
found at http://aviationweather.gov/adds/metars/
 
KMLU 251742Z 2518/2618 12005KT 6SM SHRA SCT020 OVC120 
     TEMPO 2518/2522 3SM SHRA BR OVC013 
     FM252200 06006KT 3SM SHRA BR OVC013 
     FM260700 01005KT 3SM BR OVC010 
     TEMPO 2610/2614 1SM BR OVC007 
     FM261600 03006KT P6SM BKN010 BKN250